createdAt,value
2022-09-07T00:00:15.954Z,9.10
2022-09-07T00:15:40.757Z,6.70
2022-09-07T00:30:43.893Z,6.70
2022-09-07T00:45:46.883Z,10.50
2022-09-07T01:00:51.045Z,2.20
2022-09-07T01:15:59.771Z,2.20
2022-09-07T01:31:19.627Z,3.60
2022-09-07T01:46:36.967Z,2.80
2022-09-07T02:01:56.437Z,3.10
2022-09-07T02:17:12.483Z,3.10
2022-09-07T02:32:15.656Z,2.10
2022-09-07T02:47:32.555Z,2.10
2022-09-07T03:03:06.278Z,5.80
2022-09-07T03:18:09.443Z,10.00
2022-09-07T03:33:12.437Z,7.00
2022-09-07T03:48:15.675Z,12.80
2022-09-07T04:03:19.088Z,17.50
2022-09-07T04:18:23.859Z,27.90
2022-09-07T04:33:27.077Z,31.90
2022-09-07T04:48:30.465Z,19.90
2022-09-07T05:03:37.837Z,19.60
2022-09-07T05:18:42.023Z,11.80
2022-09-07T05:49:13.598Z,8.90
2022-09-07T06:04:16.870Z,3.10
2022-09-07T06:19:20.106Z,5.40
2022-09-07T06:34:23.339Z,4.10
2022-09-07T06:49:26.923Z,5.00
2022-09-07T07:04:30.383Z,7.30
2022-09-07T07:19:33.927Z,4.60
2022-09-07T07:34:37.305Z,9.90
2022-09-07T07:49:40.278Z,3.70
2022-09-07T08:04:43.550Z,2.80
2022-09-07T08:19:47.081Z,3.50
2022-09-07T08:34:50.872Z,4.40
2022-09-07T08:50:04.501Z,2.10
2022-09-07T09:05:21.434Z,3.40
2022-09-07T09:20:34.796Z,4.60
2022-09-07T09:35:40.306Z,2.10
2022-09-07T10:06:18.653Z,1.10
2022-09-07T10:21:28.889Z,2.40
2022-09-07T10:36:36.041Z,1.40
2022-09-07T10:52:09.809Z,2.50
2022-09-07T11:07:42.577Z,2.70
2022-09-07T11:22:52.411Z,2.80
2022-09-07T11:38:04.282Z,4.20
2022-09-07T11:53:14.946Z,1.60
2022-09-07T12:08:43.464Z,1.10
2022-09-07T12:23:48.828Z,3.20
2022-09-07T12:39:21.073Z,2.00
2022-09-07T12:54:34.726Z,1.50
2022-09-07T13:09:41.494Z,2.30
2022-09-07T13:24:53.650Z,6.20
2022-09-07T13:40:04.408Z,4.20
2022-09-07T13:55:48.978Z,2.40
2022-09-07T14:11:00.183Z,1.90
2022-09-07T14:26:22.673Z,2.10
2022-09-07T14:41:32.386Z,2.60
2022-09-07T14:56:38.450Z,1.20
2022-09-07T15:11:41.967Z,2.70
2022-09-07T15:27:03.444Z,2.40
2022-09-07T15:57:51.200Z,10.00
2022-09-07T16:13:01.207Z,49.90
2022-09-07T16:28:06.686Z,30.00
2022-09-07T16:43:10.140Z,70.90
2022-09-07T17:13:39.727Z,52.60
2022-09-07T17:28:45.757Z,11.30
2022-09-07T17:43:52.598Z,46.80
2022-09-07T18:00:10.567Z,64.50
2022-09-07T18:14:20.309Z,180.90
2022-09-07T18:29:29.207Z,88.80
2022-09-07T19:00:03.239Z,19.70
2022-09-07T19:15:08.854Z,77.50
2022-09-07T19:30:13.058Z,46.80
2022-09-07T19:45:17.370Z,63.80
2022-09-07T20:00:20.942Z,64.30
2022-09-07T20:15:25.059Z,54.50
2022-09-07T20:30:30.398Z,47.20
2022-09-07T20:45:35.860Z,39.40
2022-09-07T21:00:39.418Z,55.30
2022-09-07T21:15:44.815Z,58.90
2022-09-07T21:31:04.272Z,33.70
2022-09-07T21:46:11.662Z,26.40
2022-09-07T22:01:18.441Z,15.90
2022-09-07T22:16:21.575Z,13.00
2022-09-07T22:31:33.578Z,20.90
2022-09-07T22:46:39.013Z,17.10
2022-09-07T23:01:42.159Z,23.90
2022-09-07T23:16:45.785Z,17.80
2022-09-07T23:31:49.179Z,20.90
2022-09-07T23:46:52.336Z,14.00
